createdAt,value
2019-04-04T00:01:04.646Z,99.90
2019-04-04T00:03:37.756Z,99.90
2019-04-04T00:06:09.347Z,99.90
2019-04-04T00:08:41.006Z,99.90
2019-04-04T00:11:13.229Z,99.90
2019-04-04T00:13:46.426Z,99.90
2019-04-04T00:16:18.126Z,99.90
2019-04-04T00:18:49.727Z,99.90
2019-04-04T00:21:22.326Z,99.90
2019-04-04T00:23:53.874Z,99.90
2019-04-04T00:26:25.383Z,99.90
2019-04-04T00:28:57.005Z,1.00
2019-04-04T00:31:28.459Z,1.00
2019-04-04T00:34:00.014Z,99.90
2019-04-04T00:36:33.874Z,99.90
2019-04-04T00:39:14.334Z,99.90
2019-04-04T00:41:46.509Z,99.90
2019-04-04T00:44:18.247Z,99.90
2019-04-04T00:46:49.718Z,1.00
2019-04-04T00:49:21.171Z,1.00
2019-04-04T00:51:53.580Z,1.00
2019-04-04T00:54:25.034Z,1.00
2019-04-04T00:56:56.422Z,1.00
2019-04-04T00:59:29.866Z,1.00
2019-04-04T01:02:02.137Z,1.00
2019-04-04T01:04:33.858Z,1.00
2019-04-04T01:07:05.723Z,1.00
2019-04-04T01:09:37.222Z,1.00
2019-04-04T01:12:08.724Z,1.00
2019-04-04T01:14:40.170Z,1.00
2019-04-04T01:17:11.603Z,1.00
2019-04-04T01:19:43.082Z,1.00
2019-04-04T01:22:14.533Z,1.00
2019-04-04T01:24:46.007Z,1.00
2019-04-04T01:27:17.492Z,1.00
2019-04-04T01:29:48.950Z,1.00
2019-04-04T01:32:20.372Z,1.00
2019-04-04T01:34:52.633Z,1.00
2019-04-04T01:37:26.911Z,1.00
2019-04-04T01:39:57.448Z,1.00
2019-04-04T01:42:28.846Z,1.00
2019-04-04T01:45:00.282Z,1.00
2019-04-04T01:47:31.682Z,1.00
2019-04-04T01:50:04.289Z,1.00
2019-04-04T01:52:35.653Z,1.00
2019-04-04T01:55:07.162Z,1.00
2019-04-04T01:57:39.387Z,1.00
2019-04-04T02:00:14.756Z,1.00
2019-04-04T02:02:45.356Z,1.00
2019-04-04T02:05:16.866Z,1.00
2019-04-04T02:07:49.561Z,1.00
2019-04-04T02:10:21.060Z,1.00
2019-04-04T02:12:52.512Z,1.00
2019-04-04T02:15:23.978Z,1.00
2019-04-04T02:17:55.408Z,1.00
2019-04-04T02:20:27.527Z,1.00
2019-04-04T02:23:01.244Z,1.00
2019-04-04T02:25:34.073Z,1.00
2019-04-04T02:28:06.945Z,1.00
2019-04-04T02:30:38.398Z,1.00
2019-04-04T02:33:09.898Z,1.00
2019-04-04T02:35:43.698Z,1.00
2019-04-04T02:38:14.525Z,1.00
2019-04-04T02:40:46.048Z,1.00
2019-04-04T02:43:17.556Z,1.00
2019-04-04T02:45:49.029Z,1.00
2019-04-04T02:48:23.170Z,1.00
2019-04-04T02:50:53.609Z,1.00
2019-04-04T02:53:25.000Z,1.00
2019-04-04T02:55:56.443Z,1.00
2019-04-04T02:58:27.897Z,1.00
2019-04-04T03:01:00.480Z,1.00
2019-04-04T03:03:33.459Z,1.00
2019-04-04T03:06:04.917Z,1.00
2019-04-04T03:08:37.695Z,1.00
2019-04-04T03:11:09.462Z,1.00
2019-04-04T03:13:40.884Z,1.00
2019-04-04T03:16:12.308Z,1.00
2019-04-04T03:18:43.726Z,1.00
2019-04-04T03:21:15.244Z,1.00
2019-04-04T03:23:46.646Z,1.00
2019-04-04T03:26:20.089Z,1.00
2019-04-04T03:28:51.285Z,1.00
2019-04-04T03:31:22.766Z,1.00
2019-04-04T03:33:54.196Z,1.00
2019-04-04T03:36:25.701Z,1.00
2019-04-04T03:38:57.137Z,1.00
2019-04-04T03:41:30.623Z,1.00
2019-04-04T03:44:01.880Z,1.00
2019-04-04T03:46:38.378Z,1.00
2019-04-04T03:49:06.418Z,1.00
2019-04-04T03:51:38.298Z,1.00
2019-04-04T03:54:13.962Z,1.00
2019-04-04T03:56:45.391Z,1.00
2019-04-04T03:59:16.786Z,1.00
2019-04-04T04:01:48.220Z,1.00
2019-04-04T04:04:19.616Z,1.00
2019-04-04T04:06:51.099Z,1.00
2019-04-04T04:09:25.812Z,1.00
2019-04-04T04:11:55.660Z,1.00
2019-04-04T04:14:27.071Z,1.00
2019-04-04T04:16:58.541Z,1.00
2019-04-04T04:19:31.387Z,1.00
2019-04-04T04:22:04.056Z,1.00
2019-04-04T04:24:35.439Z,1.00
2019-04-04T04:27:06.865Z,1.00
2019-04-04T04:29:38.392Z,1.00
2019-04-04T04:32:09.908Z,1.00
2019-04-04T04:34:41.366Z,1.00
2019-04-04T04:37:12.961Z,1.00
2019-04-04T04:39:44.397Z,1.00
2019-04-04T04:42:15.902Z,1.00
2019-04-04T04:44:47.287Z,1.00
2019-04-04T04:47:22.995Z,1.00
2019-04-04T04:49:55.112Z,1.00
2019-04-04T04:52:25.017Z,1.00
2019-04-04T04:54:56.393Z,1.00
2019-04-04T04:57:29.927Z,1.00
2019-04-04T05:00:00.941Z,1.00
2019-04-04T05:02:32.457Z,1.00
2019-04-04T05:05:04.125Z,1.00
2019-04-04T05:07:38.455Z,1.00
2019-04-04T05:10:09.956Z,1.00
2019-04-04T05:12:41.370Z,1.00
2019-04-04T05:15:12.777Z,1.00
2019-04-04T05:17:44.247Z,1.00
2019-04-04T05:20:15.658Z,1.00
2019-04-04T05:22:54.428Z,1.00
2019-04-04T05:25:26.288Z,1.00
2019-04-04T05:27:58.054Z,1.00
2019-04-04T05:30:29.765Z,1.00
2019-04-04T05:33:01.679Z,1.00
2019-04-04T05:35:33.483Z,1.00
2019-04-04T05:38:07.894Z,1.00
2019-04-04T05:40:39.425Z,99.90
2019-04-04T05:43:10.987Z,99.90
2019-04-04T05:45:44.845Z,99.90
2019-04-04T05:48:15.569Z,99.90
2019-04-04T05:50:46.955Z,99.90
2019-04-04T05:53:21.308Z,99.90
2019-04-04T05:55:51.748Z,99.90
2019-04-04T05:58:23.153Z,1.00
2019-04-04T06:00:57.607Z,1.00
2019-04-04T06:03:27.968Z,1.00
2019-04-04T06:06:01.327Z,99.90
2019-04-04T06:08:32.586Z,99.90
2019-04-04T06:11:04.000Z,99.90
2019-04-04T06:13:35.498Z,1.00
2019-04-04T06:16:06.972Z,1.00
2019-04-04T06:18:38.406Z,99.90
2019-04-04T06:21:09.852Z,1.00
2019-04-04T06:23:41.418Z,1.00
2019-04-04T06:26:12.835Z,1.00
2019-04-04T06:28:45.045Z,1.00
2019-04-04T06:31:16.595Z,1.00
2019-04-04T06:33:48.158Z,1.00
2019-04-04T06:36:19.622Z,1.00
2019-04-04T06:38:52.205Z,1.00
2019-04-04T06:41:24.327Z,1.00
2019-04-04T06:43:55.788Z,1.00
2019-04-04T06:46:27.240Z,1.00
2019-04-04T06:48:58.780Z,1.00
2019-04-04T06:51:30.227Z,99.90
2019-04-04T06:54:01.806Z,99.90
2019-04-04T06:56:33.312Z,99.90
2019-04-04T06:59:04.865Z,99.90
2019-04-04T07:01:36.378Z,99.90
2019-04-04T07:04:07.930Z,99.90
2019-04-04T07:06:41.716Z,99.90
2019-04-04T07:09:13.572Z,99.90
2019-04-04T07:11:45.174Z,99.90
2019-04-04T07:14:16.672Z,99.90
2019-04-04T07:16:49.230Z,99.90
2019-04-04T07:19:20.716Z,99.90
2019-04-04T07:21:52.210Z,99.90
2019-04-04T07:24:24.268Z,99.90
2019-04-04T07:26:55.844Z,99.90
2019-04-04T07:29:27.282Z,99.90
2019-04-04T07:31:58.753Z,99.90
2019-04-04T07:34:30.204Z,99.90
2019-04-04T07:37:01.662Z,99.90
2019-04-04T07:39:33.136Z,99.90
2019-04-04T07:42:04.684Z,99.90
2019-04-04T07:44:36.222Z,99.90
2019-04-04T07:47:07.938Z,99.90
2019-04-04T07:49:40.281Z,99.90
2019-04-04T07:52:11.872Z,99.90
2019-04-04T07:54:43.306Z,99.90
2019-04-04T07:57:14.710Z,99.90
2019-04-04T07:59:46.176Z,99.90
2019-04-04T08:02:17.594Z,99.90
2019-04-04T08:04:49.162Z,99.90
2019-04-04T08:07:20.741Z,99.90
2019-04-04T08:09:52.237Z,99.90
2019-04-04T08:12:23.736Z,99.90
2019-04-04T08:14:55.281Z,99.90
2019-04-04T08:17:27.820Z,99.90
2019-04-04T08:20:00.094Z,99.90
2019-04-04T08:22:31.935Z,99.90
2019-04-04T08:25:03.633Z,99.90
2019-04-04T08:27:35.125Z,99.90
2019-04-04T08:30:08.475Z,99.90
2019-04-04T08:32:40.069Z,99.90
2019-04-04T08:35:11.847Z,99.90
2019-04-04T08:37:43.448Z,99.90
2019-04-04T08:40:15.254Z,99.90
2019-04-04T08:42:46.770Z,99.90
2019-04-04T08:45:18.478Z,99.90
2019-04-04T08:47:49.955Z,99.90
2019-04-04T08:50:21.631Z,99.90
2019-04-04T08:52:53.068Z,99.90
2019-04-04T08:55:24.661Z,99.90
2019-04-04T08:57:56.275Z,99.90
2019-04-04T09:00:27.800Z,99.90
2019-04-04T09:02:59.460Z,99.90
2019-04-04T09:05:31.037Z,99.90
2019-04-04T09:08:02.738Z,99.90
2019-04-04T09:10:34.369Z,99.90
2019-04-04T09:13:06.069Z,99.90
2019-04-04T09:15:37.535Z,99.90
2019-04-04T09:18:12.044Z,99.90
2019-04-04T09:20:43.561Z,99.90
2019-04-04T09:23:15.371Z,99.90
2019-04-04T09:25:47.055Z,99.90
2019-04-04T09:28:20.767Z,99.90
2019-04-04T09:30:52.409Z,99.90
2019-04-04T09:33:23.981Z,99.90
2019-04-04T09:35:55.812Z,99.90
2019-04-04T09:38:29.179Z,99.90
2019-04-04T09:41:01.261Z,99.90
2019-04-04T09:43:51.833Z,99.90
2019-04-04T09:46:23.314Z,99.90
2019-04-04T09:48:56.231Z,99.90
2019-04-04T09:51:28.035Z,99.90
2019-04-04T09:53:59.618Z,99.90
2019-04-04T09:56:31.170Z,99.90
2019-04-04T09:59:02.794Z,99.90
2019-04-04T10:01:35.991Z,99.90
2019-04-04T10:04:09.980Z,99.90
2019-04-04T10:06:46.106Z,99.90
2019-04-04T10:09:17.642Z,99.90
2019-04-04T10:11:49.256Z,99.90
2019-04-04T10:14:23.218Z,99.90
2019-04-04T10:16:54.861Z,99.90
2019-04-04T10:19:26.727Z,99.90
2019-04-04T10:21:58.559Z,99.90
2019-04-04T10:24:30.043Z,99.90
2019-04-04T10:27:01.515Z,99.90
2019-04-04T10:29:33.063Z,99.90
2019-04-04T10:32:04.871Z,99.90
2019-04-04T10:34:36.282Z,99.90
2019-04-04T10:37:07.797Z,99.90
2019-04-04T10:39:39.451Z,99.90
2019-04-04T10:42:12.046Z,99.90
2019-04-04T10:44:43.587Z,99.90
2019-04-04T10:47:15.381Z,99.90
2019-04-04T10:49:48.130Z,99.90
2019-04-04T10:52:20.979Z,99.90
2019-04-04T10:54:54.093Z,99.90
2019-04-04T10:57:25.709Z,99.90
2019-04-04T10:59:58.347Z,99.90
2019-04-04T11:02:30.019Z,99.90
2019-04-04T11:05:02.359Z,99.90
2019-04-04T11:07:35.182Z,99.90
2019-04-04T11:10:07.878Z,99.90
2019-04-04T11:12:39.593Z,99.90
2019-04-04T11:15:11.078Z,99.90
2019-04-04T11:17:43.000Z,99.90
2019-04-04T11:20:14.625Z,99.90
2019-04-04T11:22:46.120Z,99.90
2019-04-04T11:25:17.826Z,99.90
2019-04-04T11:27:49.394Z,99.90
2019-04-04T11:30:23.602Z,99.90
2019-04-04T11:32:55.077Z,99.90
2019-04-04T11:35:26.500Z,99.90
2019-04-04T11:37:58.064Z,99.90
2019-04-04T11:40:29.646Z,99.90
2019-04-04T11:43:01.223Z,99.90
2019-04-04T11:45:32.636Z,99.90
2019-04-04T11:48:04.173Z,99.90
2019-04-04T11:50:35.614Z,99.90
2019-04-04T11:53:07.199Z,99.90
2019-04-04T11:55:39.248Z,99.90
2019-04-04T11:58:10.844Z,99.90
2019-04-04T12:00:44.126Z,99.90
2019-04-04T12:03:15.602Z,99.90
2019-04-04T12:05:47.153Z,99.90
2019-04-04T12:08:18.799Z,99.90
2019-04-04T12:10:50.376Z,99.90
2019-04-04T12:13:22.078Z,99.90
2019-04-04T12:15:53.538Z,99.90
2019-04-04T12:18:25.063Z,99.90
2019-04-04T12:20:56.597Z,99.90
2019-04-04T12:23:28.062Z,99.90
2019-04-04T12:25:59.490Z,99.90
2019-04-04T12:28:30.905Z,99.90
2019-04-04T12:31:02.337Z,99.90
2019-04-04T12:33:33.969Z,99.90
2019-04-04T12:36:05.650Z,99.90
2019-04-04T12:38:37.201Z,99.90
2019-04-04T12:41:08.627Z,99.90
2019-04-04T12:43:40.200Z,99.90
2019-04-04T12:46:11.872Z,99.90
2019-04-04T12:48:43.388Z,99.90
2019-04-04T12:51:14.854Z,99.90
2019-04-04T12:53:46.490Z,99.90
2019-04-04T12:56:18.001Z,99.90
2019-04-04T12:58:49.556Z,99.90
2019-04-04T13:01:21.603Z,99.90
2019-04-04T13:03:53.061Z,99.90
2019-04-04T13:06:24.749Z,99.90
2019-04-04T13:08:56.175Z,99.90
2019-04-04T13:11:27.616Z,99.90
2019-04-04T13:13:59.106Z,99.90
2019-04-04T13:16:30.595Z,99.90
2019-04-04T13:19:02.143Z,99.90
2019-04-04T13:21:33.640Z,99.90
2019-04-04T13:24:05.110Z,99.90
2019-04-04T13:26:36.556Z,99.90
2019-04-04T13:29:08.167Z,99.90
2019-04-04T13:31:39.575Z,99.90
2019-04-04T13:34:10.984Z,99.90
2019-04-04T13:36:42.426Z,99.90
2019-04-04T13:39:13.866Z,99.90
2019-04-04T13:41:45.362Z,99.90
2019-04-04T13:44:16.826Z,99.90
2019-04-04T13:46:48.301Z,99.90
2019-04-04T13:49:19.928Z,99.90
2019-04-04T13:51:53.176Z,99.90
2019-04-04T13:54:24.774Z,99.90
2019-04-04T13:56:56.356Z,99.90
2019-04-04T13:59:27.797Z,99.90
2019-04-04T14:01:59.334Z,99.90
2019-04-04T14:04:31.030Z,99.90
2019-04-04T14:07:03.033Z,99.90
2019-04-04T14:09:34.910Z,99.90
2019-04-04T14:12:29.207Z,99.90
2019-04-04T14:14:59.906Z,99.90
2019-04-04T14:17:46.782Z,99.90
2019-04-04T14:20:18.572Z,99.90
2019-04-04T14:22:51.216Z,99.90
2019-04-04T14:25:23.296Z,99.90
2019-04-04T14:27:57.885Z,99.90
2019-04-04T14:30:40.136Z,99.90
2019-04-04T14:33:23.383Z,99.90
2019-04-04T14:35:55.000Z,99.90
2019-04-04T14:38:26.642Z,99.90
2019-04-04T14:41:10.199Z,99.90
2019-04-04T14:43:31.490Z,99.90
2019-04-04T14:46:32.886Z,99.90
2019-04-04T14:49:04.615Z,99.90
2019-04-04T14:51:42.303Z,99.90
2019-04-04T14:54:19.391Z,99.90
2019-04-04T14:56:53.625Z,99.90
2019-04-04T14:59:29.025Z,99.90
2019-04-04T15:02:00.501Z,99.90
2019-04-04T15:04:32.797Z,99.90
2019-04-04T15:07:04.551Z,99.90
2019-04-04T15:09:37.113Z,99.90
2019-04-04T15:12:08.670Z,99.90
2019-04-04T15:14:41.609Z,99.90
2019-04-04T15:17:13.473Z,99.90
2019-04-04T15:19:47.443Z,99.90
2019-04-04T15:22:18.927Z,99.90
2019-04-04T15:24:50.398Z,99.90
2019-04-04T15:27:21.905Z,99.90
2019-04-04T15:29:53.393Z,99.90
2019-04-04T15:32:24.915Z,99.90
2019-04-04T15:34:56.481Z,99.90
2019-04-04T15:37:37.777Z,99.90
2019-04-04T15:40:10.065Z,99.90
2019-04-04T15:42:46.804Z,99.90
2019-04-04T15:45:20.285Z,99.90
2019-04-04T15:47:53.608Z,99.90
2019-04-04T15:50:25.200Z,99.90
2019-04-04T15:53:08.907Z,99.90
2019-04-04T15:55:40.697Z,99.90
2019-04-04T15:58:12.270Z,99.90
2019-04-04T16:00:47.707Z,99.90
2019-04-04T16:03:19.213Z,99.90
2019-04-04T16:05:50.846Z,99.90
2019-04-04T16:08:22.381Z,99.90
2019-04-04T16:10:59.917Z,99.90
2019-04-04T16:13:31.901Z,99.90
2019-04-04T16:16:04.536Z,99.90
2019-04-04T16:18:37.733Z,99.90
2019-04-04T16:21:08.683Z,99.90
2019-04-04T16:23:40.345Z,99.90
2019-04-04T16:26:17.376Z,99.90
2019-04-04T16:28:50.735Z,99.90
2019-04-04T16:31:23.939Z,99.90
2019-04-04T16:33:55.707Z,99.90
2019-04-04T16:36:27.259Z,99.90
2019-04-04T16:38:58.751Z,99.90
2019-04-04T16:41:33.797Z,99.90
2019-04-04T16:44:05.343Z,99.90
2019-04-04T16:46:36.837Z,99.90
2019-04-04T16:49:08.355Z,99.90
2019-04-04T16:51:40.032Z,99.90
2019-04-04T16:54:11.623Z,99.90
2019-04-04T16:56:43.149Z,99.90
2019-04-04T16:59:14.643Z,99.90
2019-04-04T17:01:46.225Z,99.90
2019-04-04T17:04:17.762Z,99.90
2019-04-04T17:06:49.367Z,99.90
2019-04-04T17:09:20.942Z,99.90
2019-04-04T17:11:52.535Z,99.90
2019-04-04T17:14:24.092Z,99.90
2019-04-04T17:16:55.622Z,99.90
2019-04-04T17:20:16.267Z,99.90
2019-04-04T17:23:32.686Z,99.90
2019-04-04T17:26:04.612Z,99.90
2019-04-04T17:28:36.411Z,99.90
2019-04-04T17:31:08.462Z,99.90
2019-04-04T17:33:42.327Z,99.90
2019-04-04T17:36:14.540Z,99.90
2019-04-04T17:38:46.311Z,99.90
2019-04-04T17:41:17.763Z,99.90
2019-04-04T17:43:49.546Z,99.90
2019-04-04T17:46:21.029Z,99.90
2019-04-04T17:48:52.800Z,99.90
2019-04-04T17:51:25.375Z,99.90
2019-04-04T17:54:00.432Z,99.90
2019-04-04T17:56:31.992Z,99.90
2019-04-04T17:59:03.654Z,99.90
2019-04-04T18:01:35.164Z,99.90
2019-04-04T18:04:06.830Z,99.90
2019-04-04T18:06:40.702Z,99.90
2019-04-04T18:09:12.267Z,99.90
2019-04-04T18:11:48.417Z,99.90
2019-04-04T18:14:20.102Z,99.90
2019-04-04T18:16:51.602Z,99.90
2019-04-04T18:19:23.173Z,99.90
2019-04-04T18:21:54.841Z,99.90
2019-04-04T18:24:26.839Z,99.90
2019-04-04T18:26:58.500Z,99.90
2019-04-04T18:29:30.250Z,99.90
2019-04-04T18:32:01.954Z,99.90
2019-04-04T18:34:33.693Z,99.90
2019-04-04T18:37:05.845Z,99.90
2019-04-04T18:40:05.218Z,99.90
2019-04-04T18:42:36.786Z,99.90
2019-04-04T18:45:09.012Z,99.90
2019-04-04T18:47:40.558Z,1.00
2019-04-04T18:50:12.905Z,1.00
2019-04-04T18:52:44.571Z,1.00
2019-04-04T18:55:24.323Z,1.00
2019-04-04T18:57:58.579Z,1.00
2019-04-04T19:00:30.339Z,1.00
2019-04-04T19:03:01.930Z,1.00
2019-04-04T19:05:33.537Z,1.00
2019-04-04T19:08:06.568Z,1.00
2019-04-04T19:10:38.431Z,1.00
2019-04-04T19:13:10.183Z,1.00
2019-04-04T19:15:41.801Z,1.00
2019-04-04T19:18:14.511Z,1.00
2019-04-04T19:20:46.467Z,1.00
2019-04-04T19:23:18.032Z,1.00
2019-04-04T19:25:49.924Z,1.00
2019-04-04T19:28:21.649Z,1.00
2019-04-04T19:30:53.206Z,1.00
2019-04-04T19:33:24.772Z,1.00
2019-04-04T19:35:56.361Z,1.00
2019-04-04T19:38:29.532Z,1.00
2019-04-04T19:41:01.144Z,1.00
2019-04-04T19:43:32.909Z,1.00
2019-04-04T19:46:04.885Z,1.00
2019-04-04T19:48:36.519Z,1.00
2019-04-04T19:51:09.230Z,1.00
2019-04-04T19:53:41.036Z,1.00
2019-04-04T19:56:12.646Z,1.00
2019-04-04T19:58:45.479Z,1.00
2019-04-04T20:01:18.212Z,1.00
2019-04-04T20:03:49.862Z,1.00
2019-04-04T20:06:21.498Z,1.00
2019-04-04T20:08:53.743Z,1.00
2019-04-04T20:11:25.406Z,1.00
2019-04-04T20:13:57.169Z,1.00
2019-04-04T20:16:30.015Z,1.00
2019-04-04T20:19:01.542Z,1.00
2019-04-04T20:21:34.548Z,1.00
2019-04-04T20:24:06.189Z,1.00
2019-04-04T20:26:37.666Z,1.00
2019-04-04T20:29:09.187Z,1.00
2019-04-04T20:31:40.671Z,1.00
2019-04-04T20:34:12.119Z,1.00
2019-04-04T20:36:46.517Z,1.00
2019-04-04T20:39:18.063Z,1.00
2019-04-04T20:41:49.584Z,1.00
2019-04-04T20:44:21.051Z,1.00
2019-04-04T20:46:52.870Z,1.00
2019-04-04T20:49:24.527Z,1.00
2019-04-04T20:51:56.034Z,1.00
2019-04-04T20:54:27.579Z,1.00
2019-04-04T20:56:59.073Z,1.00
2019-04-04T20:59:30.611Z,1.00
2019-04-04T21:02:02.053Z,1.00
2019-04-04T21:04:34.425Z,1.00
2019-04-04T21:07:06.078Z,1.00
2019-04-04T21:09:37.538Z,1.00
2019-04-04T21:12:11.327Z,1.00
2019-04-04T21:14:42.433Z,1.00
2019-04-04T21:17:14.119Z,1.00
2019-04-04T21:19:45.616Z,1.00
2019-04-04T21:22:26.820Z,1.00
2019-04-04T21:24:50.439Z,1.00
2019-04-04T21:27:22.293Z,1.00
2019-04-04T21:29:53.734Z,1.00
2019-04-04T21:32:25.264Z,1.00
2019-04-04T21:34:56.824Z,1.00
2019-04-04T21:37:28.461Z,1.00
2019-04-04T21:40:00.141Z,1.00
2019-04-04T21:42:31.630Z,1.00
2019-04-04T21:45:03.233Z,1.00
2019-04-04T21:47:34.873Z,1.00
2019-04-04T21:50:07.325Z,1.00
2019-04-04T21:52:39.080Z,1.00
2019-04-04T21:55:23.789Z,1.00
2019-04-04T21:57:58.436Z,1.00
2019-04-04T22:00:37.252Z,1.00
2019-04-04T22:03:10.363Z,28.90
2019-04-04T22:05:41.899Z,64.70
2019-04-04T22:08:13.475Z,45.90
2019-04-04T22:10:45.147Z,37.80
2019-04-04T22:13:16.761Z,18.50
2019-04-04T22:15:48.301Z,6.60
2019-04-04T22:18:19.881Z,1.00
2019-04-04T22:20:51.432Z,1.00
2019-04-04T22:23:22.911Z,1.00
2019-04-04T22:25:54.465Z,1.00
2019-04-04T22:28:25.967Z,1.00
2019-04-04T22:30:57.491Z,1.00
2019-04-04T22:33:30.055Z,1.00
2019-04-04T22:36:01.566Z,1.00
2019-04-04T22:38:33.083Z,1.00
2019-04-04T22:41:04.725Z,1.00
2019-04-04T22:43:36.203Z,1.00
2019-04-04T22:46:07.737Z,1.00
2019-04-04T22:48:39.307Z,1.00
2019-04-04T22:51:10.761Z,1.00
2019-04-04T22:53:42.302Z,1.00
2019-04-04T22:56:13.786Z,1.00
2019-04-04T22:58:45.300Z,1.00
2019-04-04T23:01:17.077Z,1.00
2019-04-04T23:03:48.595Z,1.00
2019-04-04T23:06:20.153Z,1.00
2019-04-04T23:08:51.655Z,1.00
2019-04-04T23:11:23.072Z,1.00
2019-04-04T23:13:54.561Z,1.00
2019-04-04T23:16:26.016Z,1.00
2019-04-04T23:18:57.524Z,1.00
2019-04-04T23:21:29.025Z,1.00
2019-04-04T23:24:00.596Z,1.00
2019-04-04T23:26:32.077Z,1.00
2019-04-04T23:29:03.510Z,1.00
2019-04-04T23:31:35.043Z,1.00
2019-04-04T23:34:06.515Z,1.00
2019-04-04T23:36:38.045Z,30.00
2019-04-04T23:39:09.752Z,45.70
2019-04-04T23:41:41.184Z,23.10
2019-04-04T23:44:12.766Z,42.50
2019-04-04T23:46:44.259Z,59.20
2019-04-04T23:49:17.301Z,96.00
2019-04-04T23:51:48.836Z,99.90
2019-04-04T23:54:20.279Z,99.90
2019-04-04T23:56:52.000Z,99.90
2019-04-04T23:59:23.519Z,99.90
